Bentonville, AR

2:14 PM CDT on July 24, 2016 (GMT -0500)
Blueberry Heights | | Change Station
Active Advisory: Heat Advisory

Elev 1306 ft 36.38 °N, 94.18 °W | Updated 145 days ago

Partly Cloudy
Partly Cloudy
94 °F
Feels Like 101 °F
N
4
Wind Variable Wind from SSW
Gusts mph

Today
High -- | Low -- °F
--% Chance of Precip.
Yesterday
High -- | Low -- °F
Precip. -- in
Pressure 30.02 in
Visibility 10.0 miles
Clouds Clear
Heat Index 101 °F
Dew Point 71 °F
Humidity 47%
Rainfall in
Snow Depth Not available.
6:17 AM 8:28 PM
Waning Gibbous, 74% visible
METAR KVBT 241855Z AUTO 00000KT 10SM CLR 33/21 A3002 RMK AO1
Pressure 30.02 in
Visibility 10.0 miles
Clouds Clear
Heat Index 101 °F
Dew Point 71 °F
Humidity 47%
Rainfall in
Snow Depth Not available.
6:17 AM 8:28 PM
Waning Gibbous, 74% visible
METAR KVBT 241855Z AUTO 00000KT 10SM CLR 33/21 A3002 RMK AO1

10-Day Weather Forecast

Almanac

Astronomy

Jul. 24, 2016 Rise Set
Actual Time
Civil Twilight
Nautical Twilight
Astronomical Twilight
Moon
Length of Visible Light
Length of Day
Tomorrow will be .
, % of the Moon is Illuminated

Today's Extremes

State Highs State Lows

Community

WunderPhotos

Upload Photos

1,927,168 photos uploaded!

WunderBlog® & News

Nearby

Air Quality

  Air Quality AQ Index Pollutant
Not available.

Snow Depth

Station Depth Elevation

Earthquake Activity

City Distance Mag. Time & Date
Minimum magnitude displayed is 2.5.

Coastal Water Temperatures

Place Temperature

Stations

Nearby Weather Stations

Station Location Temp. Windchill Dew Point Humidity Wind Precip. Elev Updated Type
                   

Watches & Warnings

Heat Advisory
Issued: 10:48 AM CDT Jul. 24, 2016 – National Weather Service

... Heat advisory remains in effect until 9 PM CDT this evening...

* affected area... in Arkansas... Benton... Carroll... Washington...
Madison... Crawford... Franklin... and Sebastian counties. In
Oklahoma... Pushmataha... Choctaw... Osage... Washington...
Nowata... Craig... Ottawa... Pawnee... Tulsa... Rogers... Mayes...
Delaware... creek... Okfuskee... Okmulgee... Wagoner... Cherokee...
Adair... Muskogee... McIntosh... Sequoyah... Pittsburg...
Haskell... Latimer... and Le Flore counties.

* Temperature... afternoon heat indices from 102 to 109 are
expected.

* Impacts... the combination of hot temperatures and high humidity
will combine to create a dangerous situation in which heat
illnesses are possible.

Precautionary/preparedness actions...

Take extra precautions if you work or spend time outside. When
possible... reschedule strenuous activities to early morning or
evening. Drink plenty of water to stay hydrated.

Never leave anyone in a closed... parked vehicle. Temperatures
inside can reach over 150 degrees quickly... resulting in heat
stroke and death.

Pets can also succumb to the effects of excessive heat. Ensure
pets have adequate drinking water and a shady place to rest.